sensor_id;sensor_type;location;lat;lon;timestamp;P1;durP1;ratioP1;P2;durP2;ratioP2
33148;SDS011;19506;51.040;3.856;2023-04-30T00:01:04;2.13;;;1.63;;
33148;SDS011;19506;51.040;3.856;2023-04-30T00:03:30;5.47;;;3.00;;
33148;SDS011;19506;51.040;3.856;2023-04-30T00:05:55;2.00;;;1.67;;
33148;SDS011;19506;51.040;3.856;2023-04-30T00:08:21;3.85;;;2.00;;
33148;SDS011;19506;51.040;3.856;2023-04-30T00:10:47;2.03;;;1.65;;
33148;SDS011;19506;51.040;3.856;2023-04-30T00:13:13;4.07;;;2.17;;
33148;SDS011;19506;51.040;3.856;2023-04-30T00:15:39;1.73;;;1.55;;
33148;SDS011;19506;51.040;3.856;2023-04-30T00:18:05;2.30;;;1.80;;
33148;SDS011;19506;51.040;3.856;2023-04-30T00:20:31;2.40;;;1.83;;
33148;SDS011;19506;51.040;3.856;2023-04-30T00:22:59;2.75;;;1.75;;
33148;SDS011;19506;51.040;3.856;2023-04-30T00:25:24;2.97;;;1.60;;
33148;SDS011;19506;51.040;3.856;2023-04-30T00:27:50;2.65;;;1.70;;
33148;SDS011;19506;51.040;3.856;2023-04-30T00:30:16;2.05;;;1.75;;
33148;SDS011;19506;51.040;3.856;2023-04-30T00:32:41;2.97;;;1.40;;
33148;SDS011;19506;51.040;3.856;2023-04-30T00:35:09;1.83;;;1.65;;
33148;SDS011;19506;51.040;3.856;2023-04-30T00:37:35;2.58;;;1.73;;
33148;SDS011;19506;51.040;3.856;2023-04-30T00:40:01;2.58;;;1.38;;
33148;SDS011;19506;51.040;3.856;2023-04-30T00:42:26;2.10;;;1.63;;
33148;SDS011;19506;51.040;3.856;2023-04-30T00:44:52;6.65;;;1.90;;
33148;SDS011;19506;51.040;3.856;2023-04-30T00:47:18;4.10;;;1.90;;
33148;SDS011;19506;51.040;3.856;2023-04-30T00:49:43;2.42;;;1.63;;
33148;SDS011;19506;51.040;3.856;2023-04-30T00:52:09;3.15;;;1.60;;
33148;SDS011;19506;51.040;3.856;2023-04-30T00:54:35;3.33;;;1.52;;
33148;SDS011;19506;51.040;3.856;2023-04-30T00:57:01;2.92;;;1.70;;
33148;SDS011;19506;51.040;3.856;2023-04-30T00:59:31;3.83;;;1.90;;
33148;SDS011;19506;51.040;3.856;2023-04-30T01:01:57;2.58;;;1.50;;
33148;SDS011;19506;51.040;3.856;2023-04-30T01:04:23;2.28;;;1.48;;
33148;SDS011;19506;51.040;3.856;2023-04-30T01:06:49;4.65;;;1.77;;
33148;SDS011;19506;51.040;3.856;2023-04-30T01:09:14;2.60;;;1.70;;
33148;SDS011;19506;51.040;3.856;2023-04-30T01:14:14;2.47;;;1.70;;
33148;SDS011;19506;51.040;3.856;2023-04-30T01:17:00;1.85;;;1.35;;
33148;SDS011;19506;51.040;3.856;2023-04-30T01:19:43;3.22;;;1.73;;
33148;SDS011;19506;51.040;3.856;2023-04-30T01:28:05;3.85;;;1.70;;
33148;SDS011;19506;51.040;3.856;2023-04-30T01:30:40;2.05;;;1.85;;
33148;SDS011;19506;51.040;3.856;2023-04-30T01:33:09;2.65;;;1.60;;
33148;SDS011;19506;51.040;3.856;2023-04-30T01:35:52;1.55;;;1.30;;
33148;SDS011;19506;51.040;3.856;2023-04-30T01:52:58;1.50;;;1.40;;
33148;SDS011;19506;51.040;3.856;2023-04-30T01:55:27;2.72;;;1.35;;
33148;SDS011;19506;51.040;3.856;2023-04-30T01:58:23;1.90;;;1.30;;
33148;SDS011;19506;51.040;3.856;2023-04-30T02:00:49;1.77;;;1.60;;
33148;SDS011;19506;51.040;3.856;2023-04-30T02:03:16;2.63;;;1.45;;
33148;SDS011;19506;51.040;3.856;2023-04-30T02:05:42;1.92;;;1.45;;
33148;SDS011;19506;51.040;3.856;2023-04-30T02:08:07;2.78;;;1.48;;
33148;SDS011;19506;51.040;3.856;2023-04-30T02:10:33;2.20;;;1.30;;
33148;SDS011;19506;51.040;3.856;2023-04-30T02:12:58;1.40;;;1.30;;
33148;SDS011;19506;51.040;3.856;2023-04-30T02:15:24;3.38;;;1.60;;
33148;SDS011;19506;51.040;3.856;2023-04-30T02:17:50;1.60;;;1.50;;
33148;SDS011;19506;51.040;3.856;2023-04-30T02:20:16;1.65;;;1.55;;
33148;SDS011;19506;51.040;3.856;2023-04-30T02:22:41;1.52;;;1.40;;
33148;SDS011;19506;51.040;3.856;2023-04-30T02:25:07;1.25;;;1.15;;
33148;SDS011;19506;51.040;3.856;2023-04-30T02:27:33;1.38;;;1.17;;
33148;SDS011;19506;51.040;3.856;2023-04-30T02:29:59;1.33;;;1.20;;
33148;SDS011;19506;51.040;3.856;2023-04-30T02:32:25;1.25;;;1.15;;
33148;SDS011;19506;51.040;3.856;2023-04-30T02:34:50;1.92;;;1.50;;
33148;SDS011;19506;51.040;3.856;2023-04-30T02:37:16;1.25;;;1.15;;
33148;SDS011;19506;51.040;3.856;2023-04-30T02:39:42;2.53;;;1.45;;
33148;SDS011;19506;51.040;3.856;2023-04-30T02:42:07;1.67;;;1.23;;
33148;SDS011;19506;51.040;3.856;2023-04-30T02:44:33;1.20;;;1.10;;
33148;SDS011;19506;51.040;3.856;2023-04-30T02:46:59;1.33;;;1.05;;
33148;SDS011;19506;51.040;3.856;2023-04-30T02:49:26;1.52;;;1.20;;
33148;SDS011;19506;51.040;3.856;2023-04-30T02:51:52;1.60;;;1.20;;
33148;SDS011;19506;51.040;3.856;2023-04-30T02:54:18;1.95;;;1.48;;
33148;SDS011;19506;51.040;3.856;2023-04-30T02:56:44;0.90;;;0.90;;
33148;SDS011;19506;51.040;3.856;2023-04-30T02:59:10;2.60;;;1.52;;
33148;SDS011;19506;51.040;3.856;2023-04-30T03:01:36;2.03;;;1.38;;
33148;SDS011;19506;51.040;3.856;2023-04-30T03:04:02;1.45;;;1.35;;
33148;SDS011;19506;51.040;3.856;2023-04-30T03:06:29;1.02;;;1.00;;
33148;SDS011;19506;51.040;3.856;2023-04-30T03:08:55;1.35;;;1.08;;
33148;SDS011;19506;51.040;3.856;2023-04-30T03:11:21;2.60;;;1.23;;
33148;SDS011;19506;51.040;3.856;2023-04-30T03:13:47;2.28;;;1.40;;
33148;SDS011;19506;51.040;3.856;2023-04-30T03:16:16;8.00;;;1.20;;
33148;SDS011;19506;51.040;3.856;2023-04-30T03:18:43;4.07;;;1.50;;
33148;SDS011;19506;51.040;3.856;2023-04-30T03:21:12;1.25;;;1.15;;
33148;SDS011;19506;51.040;3.856;2023-04-30T03:23:38;2.92;;;1.20;;
33148;SDS011;19506;51.040;3.856;2023-04-30T03:26:04;5.95;;;2.00;;
33148;SDS011;19506;51.040;3.856;2023-04-30T03:28:30;2.03;;;1.60;;
33148;SDS011;19506;51.040;3.856;2023-04-30T03:30:56;3.97;;;1.77;;
33148;SDS011;19506;51.040;3.856;2023-04-30T03:33:23;3.95;;;1.90;;
33148;SDS011;19506;51.040;3.856;2023-04-30T03:35:48;2.53;;;1.92;;
33148;SDS011;19506;51.040;3.856;2023-04-30T03:38:15;7.55;;;2.45;;
33148;SDS011;19506;51.040;3.856;2023-04-30T03:40:41;2.22;;;1.80;;
33148;SDS011;19506;51.040;3.856;2023-04-30T03:43:07;1.70;;;1.60;;
33148;SDS011;19506;51.040;3.856;2023-04-30T03:45:32;6.90;;;2.97;;
33148;SDS011;19506;51.040;3.856;2023-04-30T03:47:58;10.15;;;2.85;;
33148;SDS011;19506;51.040;3.856;2023-04-30T03:50:24;2.13;;;1.80;;
33148;SDS011;19506;51.040;3.856;2023-04-30T03:52:50;4.45;;;2.42;;
33148;SDS011;19506;51.040;3.856;2023-04-30T03:55:15;3.70;;;2.33;;
33148;SDS011;19506;51.040;3.856;2023-04-30T03:57:41;6.03;;;2.42;;
33148;SDS011;19506;51.040;3.856;2023-04-30T04:00:07;4.45;;;2.15;;
33148;SDS011;19506;51.040;3.856;2023-04-30T04:02:34;3.30;;;1.98;;
33148;SDS011;19506;51.040;3.856;2023-04-30T04:05:00;4.38;;;2.13;;
33148;SDS011;19506;51.040;3.856;2023-04-30T04:07:26;6.80;;;2.20;;
33148;SDS011;19506;51.040;3.856;2023-04-30T04:09:51;2.50;;;2.05;;
33148;SDS011;19506;51.040;3.856;2023-04-30T04:12:17;2.15;;;1.60;;
33148;SDS011;19506;51.040;3.856;2023-04-30T04:14:43;4.43;;;2.38;;
33148;SDS011;19506;51.040;3.856;2023-04-30T04:17:09;4.43;;;2.35;;
33148;SDS011;19506;51.040;3.856;2023-04-30T04:19:35;2.40;;;1.88;;
33148;SDS011;19506;51.040;3.856;2023-04-30T04:22:00;2.08;;;1.83;;
33148;SDS011;19506;51.040;3.856;2023-04-30T04:24:26;3.45;;;2.05;;
33148;SDS011;19506;51.040;3.856;2023-04-30T04:26:52;5.22;;;1.95;;
33148;SDS011;19506;51.040;3.856;2023-04-30T04:29:18;3.58;;;2.20;;
33148;SDS011;19506;51.040;3.856;2023-04-30T04:31:43;4.78;;;1.92;;
33148;SDS011;19506;51.040;3.856;2023-04-30T04:34:09;3.58;;;1.92;;
33148;SDS011;19506;51.040;3.856;2023-04-30T04:36:35;3.47;;;2.10;;
33148;SDS011;19506;51.040;3.856;2023-04-30T04:39:01;3.22;;;2.10;;
33148;SDS011;19506;51.040;3.856;2023-04-30T04:41:28;3.42;;;2.03;;
33148;SDS011;19506;51.040;3.856;2023-04-30T04:43:54;3.47;;;1.90;;
33148;SDS011;19506;51.040;3.856;2023-04-30T04:46:21;2.38;;;1.98;;
33148;SDS011;19506;51.040;3.856;2023-04-30T04:48:47;5.75;;;1.63;;
33148;SDS011;19506;51.040;3.856;2023-04-30T04:51:13;3.13;;;2.20;;
33148;SDS011;19506;51.040;3.856;2023-04-30T04:53:39;2.58;;;2.22;;
33148;SDS011;19506;51.040;3.856;2023-04-30T04:56:05;3.47;;;2.28;;
33148;SDS011;19506;51.040;3.856;2023-04-30T04:58:31;3.35;;;2.15;;
33148;SDS011;19506;51.040;3.856;2023-04-30T05:00:57;7.15;;;2.10;;
33148;SDS011;19506;51.040;3.856;2023-04-30T05:03:24;4.85;;;1.88;;
33148;SDS011;19506;51.040;3.856;2023-04-30T05:05:52;4.78;;;2.35;;
33148;SDS011;19506;51.040;3.856;2023-04-30T05:08:18;3.42;;;2.05;;
33148;SDS011;19506;51.040;3.856;2023-04-30T05:10:44;2.00;;;1.60;;
33148;SDS011;19506;51.040;3.856;2023-04-30T05:13:10;4.50;;;1.90;;
33148;SDS011;19506;51.040;3.856;2023-04-30T05:15:36;7.90;;;1.73;;
33148;SDS011;19506;51.040;3.856;2023-04-30T05:18:01;3.90;;;2.00;;
33148;SDS011;19506;51.040;3.856;2023-04-30T05:20:27;3.10;;;1.77;;
33148;SDS011;19506;51.040;3.856;2023-04-30T05:22:53;3.13;;;1.70;;
33148;SDS011;19506;51.040;3.856;2023-04-30T05:25:18;2.00;;;1.80;;
33148;SDS011;19506;51.040;3.856;2023-04-30T05:27:44;3.05;;;1.92;;
33148;SDS011;19506;51.040;3.856;2023-04-30T05:30:10;4.47;;;2.33;;
33148;SDS011;19506;51.040;3.856;2023-04-30T05:32:36;3.55;;;2.30;;
33148;SDS011;19506;51.040;3.856;2023-04-30T05:35:02;6.10;;;1.73;;
33148;SDS011;19506;51.040;3.856;2023-04-30T05:37:28;4.72;;;1.83;;
33148;SDS011;19506;51.040;3.856;2023-04-30T05:39:54;2.65;;;2.28;;
33148;SDS011;19506;51.040;3.856;2023-04-30T05:42:19;1.67;;;1.50;;
33148;SDS011;19506;51.040;3.856;2023-04-30T05:44:45;2.90;;;1.70;;
33148;SDS011;19506;51.040;3.856;2023-04-30T05:47:12;3.58;;;2.03;;
33148;SDS011;19506;51.040;3.856;2023-04-30T05:49:37;2.95;;;2.33;;
33148;SDS011;19506;51.040;3.856;2023-04-30T05:52:03;2.45;;;1.85;;
33148;SDS011;19506;51.040;3.856;2023-04-30T05:54:29;2.22;;;2.03;;
33148;SDS011;19506;51.040;3.856;2023-04-30T05:56:55;5.00;;;2.20;;
33148;SDS011;19506;51.040;3.856;2023-04-30T05:59:21;3.10;;;2.25;;
33148;SDS011;19506;51.040;3.856;2023-04-30T06:01:47;5.75;;;2.78;;
33148;SDS011;19506;51.040;3.856;2023-04-30T06:04:12;2.75;;;2.42;;
33148;SDS011;19506;51.040;3.856;2023-04-30T06:06:38;4.95;;;2.63;;
33148;SDS011;19506;51.040;3.856;2023-04-30T06:09:04;6.07;;;2.92;;
33148;SDS011;19506;51.040;3.856;2023-04-30T06:11:29;2.58;;;2.33;;
33148;SDS011;19506;51.040;3.856;2023-04-30T06:13:55;3.55;;;2.55;;
33148;SDS011;19506;51.040;3.856;2023-04-30T06:16:21;9.40;;;2.80;;
33148;SDS011;19506;51.040;3.856;2023-04-30T06:18:47;9.68;;;2.92;;
33148;SDS011;19506;51.040;3.856;2023-04-30T06:21:13;9.68;;;2.75;;
33148;SDS011;19506;51.040;3.856;2023-04-30T06:23:39;22.20;;;3.50;;
33148;SDS011;19506;51.040;3.856;2023-04-30T06:26:04;12.40;;;2.83;;
33148;SDS011;19506;51.040;3.856;2023-04-30T06:28:30;7.75;;;3.08;;
33148;SDS011;19506;51.040;3.856;2023-04-30T06:30:56;5.15;;;2.55;;
33148;SDS011;19506;51.040;3.856;2023-04-30T06:33:22;12.93;;;2.95;;
33148;SDS011;19506;51.040;3.856;2023-04-30T06:35:48;6.25;;;2.85;;
33148;SDS011;19506;51.040;3.856;2023-04-30T06:38:16;8.48;;;2.50;;
33148;SDS011;19506;51.040;3.856;2023-04-30T06:40:44;5.82;;;2.78;;
33148;SDS011;19506;51.040;3.856;2023-04-30T06:43:10;5.68;;;3.03;;
33148;SDS011;19506;51.040;3.856;2023-04-30T06:45:36;6.13;;;4.03;;
33148;SDS011;19506;51.040;3.856;2023-04-30T06:48:02;2.97;;;2.42;;
33148;SDS011;19506;51.040;3.856;2023-04-30T06:50:28;9.98;;;3.10;;
33148;SDS011;19506;51.040;3.856;2023-04-30T06:52:53;9.30;;;3.20;;
33148;SDS011;19506;51.040;3.856;2023-04-30T06:55:19;5.82;;;3.25;;
33148;SDS011;19506;51.040;3.856;2023-04-30T06:57:45;5.60;;;3.20;;
33148;SDS011;19506;51.040;3.856;2023-04-30T07:00:11;5.47;;;2.92;;
33148;SDS011;19506;51.040;3.856;2023-04-30T07:02:39;4.25;;;2.83;;
33148;SDS011;19506;51.040;3.856;2023-04-30T07:05:05;7.15;;;3.00;;
33148;SDS011;19506;51.040;3.856;2023-04-30T07:07:31;13.18;;;3.33;;
33148;SDS011;19506;51.040;3.856;2023-04-30T07:09:56;6.95;;;3.10;;
33148;SDS011;19506;51.040;3.856;2023-04-30T07:12:22;3.95;;;3.22;;
33148;SDS011;19506;51.040;3.856;2023-04-30T07:14:48;5.13;;;3.17;;
33148;SDS011;19506;51.040;3.856;2023-04-30T07:17:14;4.47;;;3.08;;
33148;SDS011;19506;51.040;3.856;2023-04-30T07:19:39;10.63;;;3.65;;
33148;SDS011;19506;51.040;3.856;2023-04-30T07:22:05;12.07;;;3.60;;
33148;SDS011;19506;51.040;3.856;2023-04-30T07:24:31;6.53;;;3.28;;
33148;SDS011;19506;51.040;3.856;2023-04-30T07:26:56;9.63;;;2.95;;
33148;SDS011;19506;51.040;3.856;2023-04-30T07:29:26;7.93;;;3.08;;
33148;SDS011;19506;51.040;3.856;2023-04-30T07:31:53;7.03;;;4.10;;
33148;SDS011;19506;51.040;3.856;2023-04-30T07:34:19;5.38;;;3.40;;
33148;SDS011;19506;51.040;3.856;2023-04-30T07:36:46;6.15;;;3.00;;
33148;SDS011;19506;51.040;3.856;2023-04-30T07:39:12;11.40;;;3.45;;
33148;SDS011;19506;51.040;3.856;2023-04-30T07:41:38;13.32;;;3.75;;
33148;SDS011;19506;51.040;3.856;2023-04-30T07:44:04;12.43;;;4.45;;
33148;SDS011;19506;51.040;3.856;2023-04-30T07:46:30;12.85;;;4.18;;
33148;SDS011;19506;51.040;3.856;2023-04-30T07:48:56;15.52;;;4.75;;
33148;SDS011;19506;51.040;3.856;2023-04-30T07:51:22;23.92;;;4.95;;
33148;SDS011;19506;51.040;3.856;2023-04-30T07:53:47;17.95;;;5.63;;
33148;SDS011;19506;51.040;3.856;2023-04-30T07:56:13;25.10;;;6.03;;
33148;SDS011;19506;51.040;3.856;2023-04-30T07:58:39;18.95;;;5.95;;
33148;SDS011;19506;51.040;3.856;2023-04-30T08:01:04;19.27;;;6.70;;
33148;SDS011;19506;51.040;3.856;2023-04-30T08:03:30;27.25;;;6.93;;
33148;SDS011;19506;51.040;3.856;2023-04-30T08:05:56;26.83;;;6.35;;
33148;SDS011;19506;51.040;3.856;2023-04-30T08:08:21;17.38;;;6.05;;
33148;SDS011;19506;51.040;3.856;2023-04-30T08:10:47;18.27;;;6.43;;
33148;SDS011;19506;51.040;3.856;2023-04-30T08:13:13;22.77;;;6.70;;
33148;SDS011;19506;51.040;3.856;2023-04-30T08:15:38;25.08;;;6.20;;
33148;SDS011;19506;51.040;3.856;2023-04-30T08:18:04;24.77;;;5.47;;
33148;SDS011;19506;51.040;3.856;2023-04-30T08:20:31;14.02;;;5.90;;
33148;SDS011;19506;51.040;3.856;2023-04-30T08:22:57;27.48;;;6.65;;
33148;SDS011;19506;51.040;3.856;2023-04-30T08:25:22;18.65;;;5.45;;
33148;SDS011;19506;51.040;3.856;2023-04-30T08:27:48;14.93;;;6.10;;
33148;SDS011;19506;51.040;3.856;2023-04-30T08:30:14;18.77;;;6.38;;
33148;SDS011;19506;51.040;3.856;2023-04-30T08:32:39;18.65;;;5.93;;
33148;SDS011;19506;51.040;3.856;2023-04-30T08:35:05;13.85;;;6.43;;
33148;SDS011;19506;51.040;3.856;2023-04-30T08:37:32;17.90;;;6.15;;
33148;SDS011;19506;51.040;3.856;2023-04-30T08:39:58;17.85;;;6.32;;
33148;SDS011;19506;51.040;3.856;2023-04-30T08:42:25;13.75;;;5.53;;
33148;SDS011;19506;51.040;3.856;2023-04-30T08:45:00;18.30;;;6.43;;
33148;SDS011;19506;51.040;3.856;2023-04-30T08:47:27;21.17;;;6.43;;
33148;SDS011;19506;51.040;3.856;2023-04-30T08:49:53;16.88;;;6.78;;
33148;SDS011;19506;51.040;3.856;2023-04-30T08:52:18;15.82;;;6.20;;
33148;SDS011;19506;51.040;3.856;2023-04-30T08:54:46;15.63;;;5.47;;
33148;SDS011;19506;51.040;3.856;2023-04-30T08:57:12;18.08;;;5.75;;
33148;SDS011;19506;51.040;3.856;2023-04-30T08:59:38;18.45;;;6.28;;
33148;SDS011;19506;51.040;3.856;2023-04-30T09:02:04;20.90;;;6.13;;
33148;SDS011;19506;51.040;3.856;2023-04-30T09:04:30;23.00;;;5.80;;
33148;SDS011;19506;51.040;3.856;2023-04-30T09:06:56;16.13;;;6.15;;
33148;SDS011;19506;51.040;3.856;2023-04-30T09:09:28;21.35;;;6.05;;
33148;SDS011;19506;51.040;3.856;2023-04-30T09:12:14;17.42;;;6.10;;
33148;SDS011;19506;51.040;3.856;2023-04-30T09:15:02;12.02;;;5.30;;
33148;SDS011;19506;51.040;3.856;2023-04-30T09:17:29;15.63;;;5.13;;
33148;SDS011;19506;51.040;3.856;2023-04-30T09:20:06;12.27;;;5.28;;
33148;SDS011;19506;51.040;3.856;2023-04-30T09:24:59;21.47;;;6.43;;
33148;SDS011;19506;51.040;3.856;2023-04-30T09:27:24;11.45;;;5.13;;
33148;SDS011;19506;51.040;3.856;2023-04-30T09:29:50;15.82;;;6.80;;
33148;SDS011;19506;51.040;3.856;2023-04-30T09:32:16;15.07;;;6.15;;
33148;SDS011;19506;51.040;3.856;2023-04-30T09:34:41;12.52;;;5.30;;
33148;SDS011;19506;51.040;3.856;2023-04-30T09:37:07;13.60;;;5.65;;
33148;SDS011;19506;51.040;3.856;2023-04-30T09:39:44;15.75;;;5.75;;
33148;SDS011;19506;51.040;3.856;2023-04-30T09:42:12;15.10;;;6.50;;
33148;SDS011;19506;51.040;3.856;2023-04-30T09:44:38;13.00;;;5.70;;
33148;SDS011;19506;51.040;3.856;2023-04-30T09:47:15;15.75;;;6.80;;
33148;SDS011;19506;51.040;3.856;2023-04-30T09:49:43;14.10;;;6.07;;
33148;SDS011;19506;51.040;3.856;2023-04-30T09:52:13;13.93;;;5.82;;
33148;SDS011;19506;51.040;3.856;2023-04-30T09:54:40;17.58;;;4.88;;
33148;SDS011;19506;51.040;3.856;2023-04-30T09:57:09;16.10;;;5.43;;
33148;SDS011;19506;51.040;3.856;2023-04-30T09:59:36;16.20;;;5.95;;
33148;SDS011;19506;51.040;3.856;2023-04-30T10:02:04;15.60;;;5.50;;
33148;SDS011;19506;51.040;3.856;2023-04-30T10:07:11;11.30;;;5.20;;
33148;SDS011;19506;51.040;3.856;2023-04-30T10:12:22;13.25;;;5.50;;
33148;SDS011;19506;51.040;3.856;2023-04-30T10:14:54;9.57;;;5.05;;
33148;SDS011;19506;51.040;3.856;2023-04-30T10:17:26;17.27;;;4.57;;
33148;SDS011;19506;51.040;3.856;2023-04-30T10:19:55;10.82;;;4.63;;
33148;SDS011;19506;51.040;3.856;2023-04-30T10:22:27;21.17;;;5.88;;
33148;SDS011;19506;51.040;3.856;2023-04-30T10:24:54;17.92;;;6.47;;
33148;SDS011;19506;51.040;3.856;2023-04-30T10:27:20;17.05;;;5.40;;
33148;SDS011;19506;51.040;3.856;2023-04-30T10:29:46;21.42;;;6.10;;
33148;SDS011;19506;51.040;3.856;2023-04-30T10:32:12;24.67;;;5.93;;
33148;SDS011;19506;51.040;3.856;2023-04-30T10:34:49;17.63;;;5.93;;
33148;SDS011;19506;51.040;3.856;2023-04-30T10:39:58;33.78;;;6.78;;
33148;SDS011;19506;51.040;3.856;2023-04-30T10:42:26;16.63;;;5.25;;
33148;SDS011;19506;51.040;3.856;2023-04-30T10:44:51;15.43;;;5.15;;
33148;SDS011;19506;51.040;3.856;2023-04-30T10:47:17;19.98;;;5.28;;
33148;SDS011;19506;51.040;3.856;2023-04-30T10:49:48;15.82;;;5.25;;
33148;SDS011;19506;51.040;3.856;2023-04-30T10:52:13;34.60;;;6.28;;
33148;SDS011;19506;51.040;3.856;2023-04-30T10:54:51;20.00;;;5.25;;
33148;SDS011;19506;51.040;3.856;2023-04-30T10:57:17;12.63;;;4.63;;
33148;SDS011;19506;51.040;3.856;2023-04-30T10:59:51;14.23;;;5.38;;
33148;SDS011;19506;51.040;3.856;2023-04-30T11:02:42;21.25;;;5.72;;
33148;SDS011;19506;51.040;3.856;2023-04-30T11:05:15;20.15;;;5.30;;
33148;SDS011;19506;51.040;3.856;2023-04-30T11:10:37;17.80;;;5.85;;
33148;SDS011;19506;51.040;3.856;2023-04-30T11:13:06;20.92;;;6.30;;
33148;SDS011;19506;51.040;3.856;2023-04-30T11:15:38;19.10;;;4.65;;
33148;SDS011;19506;51.040;3.856;2023-04-30T11:18:06;18.55;;;5.07;;
33148;SDS011;19506;51.040;3.856;2023-04-30T11:20:32;15.18;;;5.63;;
33148;SDS011;19506;51.040;3.856;2023-04-30T11:23:23;15.40;;;4.85;;
33148;SDS011;19506;51.040;3.856;2023-04-30T11:25:52;16.60;;;5.18;;
33148;SDS011;19506;51.040;3.856;2023-04-30T11:30:55;14.63;;;4.22;;
33148;SDS011;19506;51.040;3.856;2023-04-30T11:33:22;20.35;;;6.28;;
33148;SDS011;19506;51.040;3.856;2023-04-30T11:35:52;14.45;;;6.22;;
33148;SDS011;19506;51.040;3.856;2023-04-30T11:38:20;19.02;;;5.70;;
33148;SDS011;19506;51.040;3.856;2023-04-30T11:40:58;16.60;;;5.13;;
33148;SDS011;19506;51.040;3.856;2023-04-30T11:43:25;21.65;;;4.97;;
33148;SDS011;19506;51.040;3.856;2023-04-30T11:48:37;22.17;;;5.70;;
33148;SDS011;19506;51.040;3.856;2023-04-30T11:51:05;17.70;;;5.43;;
33148;SDS011;19506;51.040;3.856;2023-04-30T11:53:36;16.13;;;5.95;;
33148;SDS011;19506;51.040;3.856;2023-04-30T11:56:03;20.92;;;6.00;;
33148;SDS011;19506;51.040;3.856;2023-04-30T11:58:34;23.92;;;6.03;;
33148;SDS011;19506;51.040;3.856;2023-04-30T12:01:02;20.02;;;5.97;;
33148;SDS011;19506;51.040;3.856;2023-04-30T12:03:29;24.33;;;6.78;;
33148;SDS011;19506;51.040;3.856;2023-04-30T12:05:55;20.15;;;5.47;;
33148;SDS011;19506;51.040;3.856;2023-04-30T12:08:21;28.00;;;6.30;;
33148;SDS011;19506;51.040;3.856;2023-04-30T12:10:47;28.05;;;6.80;;
33148;SDS011;19506;51.040;3.856;2023-04-30T12:13:13;30.98;;;7.60;;
33148;SDS011;19506;51.040;3.856;2023-04-30T12:15:40;20.63;;;6.90;;
33148;SDS011;19506;51.040;3.856;2023-04-30T12:18:12;18.30;;;6.35;;
33148;SDS011;19506;51.040;3.856;2023-04-30T12:20:39;21.58;;;5.95;;
33148;SDS011;19506;51.040;3.856;2023-04-30T12:23:06;21.45;;;6.28;;
33148;SDS011;19506;51.040;3.856;2023-04-30T12:25:39;19.42;;;5.97;;
33148;SDS011;19506;51.040;3.856;2023-04-30T12:28:06;24.83;;;6.60;;
33148;SDS011;19506;51.040;3.856;2023-04-30T12:30:31;22.55;;;5.63;;
33148;SDS011;19506;51.040;3.856;2023-04-30T12:32:58;25.00;;;6.28;;
33148;SDS011;19506;51.040;3.856;2023-04-30T12:35:26;28.60;;;6.25;;
33148;SDS011;19506;51.040;3.856;2023-04-30T12:37:54;24.80;;;6.30;;
33148;SDS011;19506;51.040;3.856;2023-04-30T12:40:27;17.38;;;5.70;;
33148;SDS011;19506;51.040;3.856;2023-04-30T12:42:59;29.60;;;6.13;;
33148;SDS011;19506;51.040;3.856;2023-04-30T12:48:12;17.58;;;5.20;;
33148;SDS011;19506;51.040;3.856;2023-04-30T12:50:39;19.70;;;5.88;;
33148;SDS011;19506;51.040;3.856;2023-04-30T12:53:05;11.75;;;4.82;;
33148;SDS011;19506;51.040;3.856;2023-04-30T12:55:32;24.85;;;5.65;;
33148;SDS011;19506;51.040;3.856;2023-04-30T12:58:06;19.15;;;5.72;;
33148;SDS011;19506;51.040;3.856;2023-04-30T13:00:42;11.65;;;4.80;;
33148;SDS011;19506;51.040;3.856;2023-04-30T13:03:16;10.70;;;4.97;;
33148;SDS011;19506;51.040;3.856;2023-04-30T13:05:49;16.15;;;4.90;;
33148;SDS011;19506;51.040;3.856;2023-04-30T13:08:15;20.00;;;5.75;;
33148;SDS011;19506;51.040;3.856;2023-04-30T13:10:42;16.00;;;4.53;;
33148;SDS011;19506;51.040;3.856;2023-04-30T13:13:09;18.42;;;5.07;;
33148;SDS011;19506;51.040;3.856;2023-04-30T13:15:36;18.00;;;5.15;;
33148;SDS011;19506;51.040;3.856;2023-04-30T13:18:02;15.10;;;5.32;;
33148;SDS011;19506;51.040;3.856;2023-04-30T13:20:27;14.82;;;4.60;;
33148;SDS011;19506;51.040;3.856;2023-04-30T13:22:53;19.35;;;4.93;;
33148;SDS011;19506;51.040;3.856;2023-04-30T13:25:19;24.85;;;6.05;;
33148;SDS011;19506;51.040;3.856;2023-04-30T13:27:46;16.90;;;4.75;;
33148;SDS011;19506;51.040;3.856;2023-04-30T13:30:11;19.23;;;4.53;;
33148;SDS011;19506;51.040;3.856;2023-04-30T13:32:37;17.83;;;4.38;;
33148;SDS011;19506;51.040;3.856;2023-04-30T13:35:03;16.98;;;5.28;;
33148;SDS011;19506;51.040;3.856;2023-04-30T13:37:29;17.73;;;5.45;;
33148;SDS011;19506;51.040;3.856;2023-04-30T13:39:56;23.25;;;5.20;;
33148;SDS011;19506;51.040;3.856;2023-04-30T13:42:24;12.02;;;4.93;;
33148;SDS011;19506;51.040;3.856;2023-04-30T13:44:50;20.00;;;4.38;;
33148;SDS011;19506;51.040;3.856;2023-04-30T13:47:16;20.67;;;4.85;;
33148;SDS011;19506;51.040;3.856;2023-04-30T13:49:42;22.75;;;5.53;;
33148;SDS011;19506;51.040;3.856;2023-04-30T13:52:08;20.80;;;5.82;;
33148;SDS011;19506;51.040;3.856;2023-04-30T13:54:33;19.13;;;5.13;;
33148;SDS011;19506;51.040;3.856;2023-04-30T13:56:59;21.67;;;4.88;;
33148;SDS011;19506;51.040;3.856;2023-04-30T13:59:25;17.23;;;4.55;;
33148;SDS011;19506;51.040;3.856;2023-04-30T14:01:50;14.13;;;4.45;;
33148;SDS011;19506;51.040;3.856;2023-04-30T14:04:16;15.73;;;4.40;;
33148;SDS011;19506;51.040;3.856;2023-04-30T14:06:42;12.52;;;4.22;;
33148;SDS011;19506;51.040;3.856;2023-04-30T14:09:08;22.30;;;4.35;;
33148;SDS011;19506;51.040;3.856;2023-04-30T14:11:33;10.25;;;4.88;;
33148;SDS011;19506;51.040;3.856;2023-04-30T14:13:59;13.93;;;3.63;;
33148;SDS011;19506;51.040;3.856;2023-04-30T14:16:25;11.25;;;3.97;;
33148;SDS011;19506;51.040;3.856;2023-04-30T14:18:51;16.92;;;4.25;;
33148;SDS011;19506;51.040;3.856;2023-04-30T14:21:18;12.82;;;4.00;;
33148;SDS011;19506;51.040;3.856;2023-04-30T14:23:43;15.98;;;4.22;;
33148;SDS011;19506;51.040;3.856;2023-04-30T14:26:11;12.60;;;4.60;;
33148;SDS011;19506;51.040;3.856;2023-04-30T14:28:37;11.40;;;3.30;;
33148;SDS011;19506;51.040;3.856;2023-04-30T14:31:02;10.20;;;3.75;;
33148;SDS011;19506;51.040;3.856;2023-04-30T14:33:29;12.77;;;4.30;;
33148;SDS011;19506;51.040;3.856;2023-04-30T14:35:56;17.95;;;4.10;;
33148;SDS011;19506;51.040;3.856;2023-04-30T14:38:24;9.23;;;3.67;;
33148;SDS011;19506;51.040;3.856;2023-04-30T14:40:50;12.90;;;3.40;;
33148;SDS011;19506;51.040;3.856;2023-04-30T14:43:15;16.50;;;3.45;;
33148;SDS011;19506;51.040;3.856;2023-04-30T14:45:41;20.58;;;3.33;;
33148;SDS011;19506;51.040;3.856;2023-04-30T14:48:08;10.13;;;3.95;;
33148;SDS011;19506;51.040;3.856;2023-04-30T14:50:34;12.00;;;3.17;;
33148;SDS011;19506;51.040;3.856;2023-04-30T14:53:00;19.67;;;3.65;;
33148;SDS011;19506;51.040;3.856;2023-04-30T14:55:25;12.63;;;3.92;;
33148;SDS011;19506;51.040;3.856;2023-04-30T14:57:51;11.35;;;4.00;;
33148;SDS011;19506;51.040;3.856;2023-04-30T15:00:17;14.82;;;3.75;;
33148;SDS011;19506;51.040;3.856;2023-04-30T15:02:43;12.45;;;3.55;;
33148;SDS011;19506;51.040;3.856;2023-04-30T15:05:08;10.43;;;3.33;;
33148;SDS011;19506;51.040;3.856;2023-04-30T15:07:34;9.68;;;3.40;;
33148;SDS011;19506;51.040;3.856;2023-04-30T15:10:01;8.85;;;3.30;;
33148;SDS011;19506;51.040;3.856;2023-04-30T15:12:27;5.40;;;2.55;;
33148;SDS011;19506;51.040;3.856;2023-04-30T15:14:53;10.02;;;3.40;;
33148;SDS011;19506;51.040;3.856;2023-04-30T15:17:18;9.55;;;3.60;;
33148;SDS011;19506;51.040;3.856;2023-04-30T15:19:45;6.15;;;3.35;;
33148;SDS011;19506;51.040;3.856;2023-04-30T15:22:10;7.88;;;3.17;;
33148;SDS011;19506;51.040;3.856;2023-04-30T15:24:36;8.35;;;2.88;;